Time,TemperatureF,DewpointF,PressureIn,WindDirection,WindDirectionDegrees,WindSpeedMPH,WindSpeedGustMPH,Humidity,HourlyPrecipIn,Conditions,Clouds,dailyrainin,SoftwareType,DateUTC
2013-03-18 00:00:00,33.1,5.8,29.14,North,0,0.0,0.0,31,0.00,,---,0.00,VWS V13.01,2013-03-18 04:00:00,
2013-03-18 00:02:00,33.1,5.8,29.14,North,0,0.0,0.0,31,0.00,,---,0.00,VWS V13.01,2013-03-18 04:02:00,
2013-03-18 00:15:00,32.9,5.6,29.14,North,0,0.0,0.0,31,0.00,,---,0.00,VWS V13.01,2013-03-18 04:15:00,
2013-03-18 00:18:00,32.9,5.6,29.14,North,0,0.0,0.0,31,0.00,,---,0.00,VWS V13.01,2013-03-18 04:18:00,
2013-03-18 00:23:00,32.9,5.6,29.14,North,0,0.0,0.0,31,0.00,,---,0.00,VWS V13.01,2013-03-18 04:23:00,
2013-03-18 00:28:00,32.9,5.6,29.14,North,0,0.0,0.0,31,0.00,,---,0.00,VWS V13.01,2013-03-18 04:28:00,
2013-03-18 00:33:00,33.3,5.9,29.14,North,0,0.0,0.0,31,0.00,,---,0.00,VWS V13.01,2013-03-18 04:33:00,
2013-03-18 00:38:00,33.3,5.9,29.14,North,0,0.0,0.0,31,0.00,,---,0.00,VWS V13.01,2013-03-18 04:38:00,
2013-03-18 00:44:00,33.3,5.9,29.14,North,0,0.0,0.0,31,0.00,,---,0.00,VWS V13.01,2013-03-18 04:44:00,
2013-03-18 00:49:00,33.6,6.2,29.14,North,0,0.0,0.0,31,0.00,,---,0.00,VWS V13.01,2013-03-18 04:49:00,
2013-03-18 00:54:00,33.6,6.2,29.14,North,0,0.0,0.0,31,0.00,,---,0.00,VWS V13.01,2013-03-18 04:54:00,
2013-03-18 00:59:00,33.8,5.7,29.14,NNE,22,0.0,0.0,30,0.00,,---,0.00,VWS V13.01,2013-03-18 04:59:00,
2013-03-18 01:05:00,34.0,5.8,29.14,NNE,22,0.0,0.0,30,0.00,,---,0.00,VWS V13.01,2013-03-18 05:05:00,
2013-03-18 01:10:00,34.0,5.8,29.14,NNE,22,0.0,0.0,30,0.00,,---,0.00,VWS V13.01,2013-03-18 05:10:00,
2013-03-18 01:15:00,34.0,5.8,29.14,NNE,22,0.0,0.0,30,0.00,,---,0.00,VWS V13.01,2013-03-18 05:15:00,
2013-03-18 01:20:00,34.0,5.8,29.14,NW,315,0.0,0.0,30,0.00,,---,0.00,VWS V13.01,2013-03-18 05:20:00,
2013-03-18 01:25:00,34.0,5.8,29.14,South,180,0.0,0.0,30,0.00,,---,0.00,VWS V13.01,2013-03-18 05:25:00,
2013-03-18 01:31:00,34.0,5.8,29.14,SSE,158,0.0,0.0,30,0.00,,---,0.00,VWS V13.01,2013-03-18 05:31:00,
2013-03-18 01:37:00,34.0,5.8,29.14,SW,225,0.0,0.0,30,0.00,,---,0.00,VWS V13.01,2013-03-18 05:37:00,
2013-03-18 01:42:00,34.0,5.8,29.14,ESE,112,0.0,0.0,30,0.00,,---,0.00,VWS V13.01,2013-03-18 05:42:00,
2013-03-18 01:47:00,34.0,5.8,29.14,ESE,112,0.0,0.0,30,0.00,,---,0.00,VWS V13.01,2013-03-18 05:47:00,
2013-03-18 01:52:00,34.0,5.8,29.14,ESE,112,0.0,0.0,30,0.00,,---,0.00,VWS V13.01,2013-03-18 05:52:00,
2013-03-18 01:57:00,34.0,5.8,29.14,ESE,112,0.0,0.0,30,0.00,,---,0.00,VWS V13.01,2013-03-18 05:57:00,
2013-03-18 02:03:00,34.0,5.8,29.14,ESE,112,0.0,0.0,30,0.00,,---,0.00,VWS V13.01,2013-03-18 06:03:00,
2013-03-18 02:08:00,34.0,5.8,29.14,ESE,112,0.0,0.0,30,0.00,,---,0.00,VWS V13.01,2013-03-18 06:08:00,
2013-03-18 02:13:00,34.0,5.8,29.14,ESE,112,0.0,0.0,30,0.00,,---,0.00,VWS V13.01,2013-03-18 06:13:00,
2013-03-18 02:18:00,34.0,5.8,29.14,ESE,112,0.0,0.0,30,0.00,,---,0.00,VWS V13.01,2013-03-18 06:18:00,
2013-03-18 02:23:00,34.0,3.5,29.14,SE,135,0.0,0.0,27,0.00,,---,0.00,VWS V13.01,2013-03-18 06:23:00,
2013-03-18 02:29:00,34.0,3.5,29.14,SE,135,0.0,0.0,27,0.00,,---,0.00,VWS V13.01,2013-03-18 06:29:00,
2013-03-18 02:34:00,34.0,3.5,29.14,SE,135,0.0,0.0,27,0.00,,---,0.00,VWS V13.01,2013-03-18 06:34:00,
2013-03-18 02:39:00,33.8,3.4,29.14,SE,135,0.0,0.0,27,0.00,,---,0.00,VWS V13.01,2013-03-18 06:39:00,
2013-03-18 02:45:00,33.8,3.4,29.14,SE,135,0.0,0.0,27,0.00,,---,0.00,VWS V13.01,2013-03-18 06:45:00,
2013-03-18 02:50:00,33.8,3.4,29.14,SE,135,0.0,0.0,27,0.00,,---,0.00,VWS V13.01,2013-03-18 06:50:00,
2013-03-18 02:55:00,33.8,3.4,29.14,SE,135,0.0,0.0,27,0.00,,---,0.00,VWS V13.01,2013-03-18 06:55:00,
2013-03-18 03:00:00,33.8,5.7,29.14,SE,135,0.0,0.0,30,0.00,,---,0.00,VWS V13.01,2013-03-18 07:00:00,
2013-03-18 03:06:00,33.6,6.2,29.14,East,90,0.0,0.0,31,0.00,,---,0.00,VWS V13.01,2013-03-18 07:06:00,
2013-03-18 03:11:00,33.6,6.2,29.14,East,90,0.0,0.0,31,0.00,,---,0.00,VWS V13.01,2013-03-18 07:11:00,
2013-03-18 03:16:00,33.3,6.6,29.14,South,180,0.0,0.0,32,0.00,,---,0.00,VWS V13.01,2013-03-18 07:16:00,
2013-03-18 03:21:00,33.1,7.8,29.14,South,180,0.0,0.0,34,0.00,,---,0.00,VWS V13.01,2013-03-18 07:21:00,
2013-03-18 03:26:00,32.9,8.3,29.14,South,180,0.0,0.0,35,0.00,,---,0.00,VWS V13.01,2013-03-18 07:26:00,
2013-03-18 03:31:00,32.7,9.3,29.14,South,180,0.0,0.0,37,0.00,,---,0.00,VWS V13.01,2013-03-18 07:31:00,
2013-03-18 03:37:00,32.5,10.9,29.14,SSW,202,0.0,0.0,40,0.00,,---,0.00,VWS V13.01,2013-03-18 07:37:00,
2013-03-18 03:42:00,32.4,11.3,29.14,SSW,202,0.0,0.0,41,0.00,,---,0.00,VWS V13.01,2013-03-18 07:42:00,
2013-03-18 03:47:00,32.2,11.7,29.14,SSW,202,0.0,0.0,42,0.00,,---,0.00,VWS V13.01,2013-03-18 07:47:00,
2013-03-18 03:53:00,32.0,12.1,29.14,SSW,202,0.0,0.0,43,0.00,,---,0.00,VWS V13.01,2013-03-18 07:53:00,
2013-03-18 03:58:00,32.0,12.6,29.14,SSW,202,0.0,0.0,44,0.00,,---,0.00,VWS V13.01,2013-03-18 07:58:00,
2013-03-18 04:03:00,31.6,12.8,29.14,SSW,202,0.0,0.0,45,0.00,,---,0.00,VWS V13.01,2013-03-18 08:03:00,
2013-03-18 04:08:00,31.5,13.1,29.14,SSW,202,0.0,0.0,46,0.00,,---,0.00,VWS V13.01,2013-03-18 08:08:00,
2013-03-18 04:13:00,31.5,14.1,29.14,SSW,202,0.0,0.0,48,0.00,,---,0.00,VWS V13.01,2013-03-18 08:13:00,
2013-03-18 04:19:00,31.5,14.5,29.14,SSW,202,0.0,0.0,49,0.00,,---,0.00,VWS V13.01,2013-03-18 08:19:00,
2013-03-18 04:24:00,31.3,14.8,29.14,SSW,202,0.0,0.0,50,0.00,,---,0.00,VWS V13.01,2013-03-18 08:24:00,
2013-03-18 04:29:00,31.3,14.8,29.14,SSW,202,0.0,0.0,50,0.00,,---,0.00,VWS V13.01,2013-03-18 08:29:00,
2013-03-18 04:34:00,31.3,15.7,29.14,SSW,202,0.0,0.0,52,0.00,,---,0.00,VWS V13.01,2013-03-18 08:34:00,
2013-03-18 04:40:00,31.3,16.1,29.14,SSW,202,0.0,0.0,53,0.00,,---,0.00,VWS V13.01,2013-03-18 08:40:00,
2013-03-18 04:45:00,31.1,16.4,29.14,SSW,202,0.0,0.0,54,0.00,,---,0.00,VWS V13.01,2013-03-18 08:45:00,
2013-03-18 04:50:00,31.1,16.4,29.14,SSW,202,0.0,0.0,54,0.00,,---,0.00,VWS V13.01,2013-03-18 08:50:00,
2013-03-18 04:55:00,31.3,17.0,29.14,SSW,202,0.0,0.0,55,0.00,,---,0.00,VWS V13.01,2013-03-18 08:55:00,
2013-03-18 05:00:00,31.3,17.0,29.14,SSW,202,0.0,0.0,55,0.00,,---,0.00,VWS V13.01,2013-03-18 09:00:00,
2013-03-18 05:07:00,31.1,17.2,29.17,SSW,202,0.0,0.0,56,0.00,,---,0.00,VWS V13.01,2013-03-18 09:07:00,
2013-03-18 05:12:00,31.1,17.2,29.17,SSW,202,0.0,0.0,56,0.00,,---,0.00,VWS V13.01,2013-03-18 09:12:00,
2013-03-18 05:18:00,31.1,17.2,29.17,SSW,202,0.0,0.0,56,0.00,,---,0.00,VWS V13.01,2013-03-18 09:18:00,
2013-03-18 05:23:00,31.1,17.7,29.14,SSW,202,0.0,0.0,57,0.00,,---,0.00,VWS V13.01,2013-03-18 09:23:00,
2013-03-18 05:28:00,31.3,19.0,29.14,SSW,202,0.0,0.0,60,0.00,,---,0.00,VWS V13.01,2013-03-18 09:28:00,
2013-03-18 05:33:00,31.1,19.2,29.14,SSW,202,0.0,0.0,61,0.00,,---,0.00,VWS V13.01,2013-03-18 09:33:00,
2013-03-18 05:39:00,31.1,19.6,29.14,SSW,202,0.0,0.0,62,0.00,,---,0.00,VWS V13.01,2013-03-18 09:39:00,
2013-03-18 05:44:00,31.1,20.0,29.14,SSW,202,0.0,0.0,63,0.00,,---,0.00,VWS V13.01,2013-03-18 09:44:00,
2013-03-18 05:49:00,31.1,21.1,29.14,SSW,202,0.0,0.0,66,0.00,,---,0.00,VWS V13.01,2013-03-18 09:49:00,
2013-03-18 05:54:00,30.9,21.6,29.14,ENE,68,0.0,0.0,68,0.00,,---,0.00,VWS V13.01,2013-03-18 09:54:00,
2013-03-18 05:59:00,30.9,22.0,29.14,ENE,68,0.0,0.0,69,0.00,,---,0.00,VWS V13.01,2013-03-18 09:59:00,
2013-03-18 06:04:00,30.7,21.8,29.14,ENE,68,0.0,0.0,69,0.00,,---,0.00,VWS V13.01,2013-03-18 10:04:00,
2013-03-18 06:10:00,30.7,21.8,29.14,ENE,68,0.0,0.0,69,0.00,,---,0.00,VWS V13.01,2013-03-18 10:10:00,
2013-03-18 06:15:00,30.6,21.6,29.14,ENE,68,0.0,0.0,69,0.00,,---,0.00,VWS V13.01,2013-03-18 10:15:00,
2013-03-18 06:21:00,30.6,22.0,29.14,ENE,68,0.0,0.0,70,0.00,,---,0.00,VWS V13.01,2013-03-18 10:21:00,
2013-03-18 06:26:00,30.2,21.6,29.14,ENE,68,0.0,0.0,70,0.00,,---,0.00,VWS V13.01,2013-03-18 10:26:00,
2013-03-18 06:31:00,30.2,21.9,29.14,ENE,68,0.0,0.0,71,0.00,,---,0.00,VWS V13.01,2013-03-18 10:31:00,
2013-03-18 06:36:00,30.0,21.8,29.14,ENE,68,0.0,0.0,71,0.00,,---,0.00,VWS V13.01,2013-03-18 10:36:00,
2013-03-18 06:41:00,30.0,22.1,29.17,ENE,68,0.0,0.0,72,0.00,,---,0.00,VWS V13.01,2013-03-18 10:41:00,
2013-03-18 06:46:00,30.0,22.1,29.17,ENE,68,0.0,0.0,72,0.00,,---,0.00,VWS V13.01,2013-03-18 10:46:00,
2013-03-18 06:52:00,30.0,22.4,29.17,ENE,68,0.0,0.0,73,0.00,,---,0.00,VWS V13.01,2013-03-18 10:52:00,
2013-03-18 06:57:00,29.8,22.2,29.17,ENE,68,0.0,0.0,73,0.00,,---,0.00,VWS V13.01,2013-03-18 10:57:00,
2013-03-18 07:02:00,29.8,22.2,29.17,ENE,68,0.0,0.0,73,0.00,,---,0.00,VWS V13.01,2013-03-18 11:02:00,
2013-03-18 07:07:00,29.7,22.1,29.14,ENE,68,0.0,0.0,73,0.00,,---,0.00,VWS V13.01,2013-03-18 11:07:00,
2013-03-18 07:13:00,29.7,22.1,29.14,ENE,68,0.0,0.0,73,0.00,,---,0.00,VWS V13.01,2013-03-18 11:13:00,
2013-03-18 07:18:00,29.7,21.8,29.14,ENE,68,0.0,0.0,72,0.00,,---,0.00,VWS V13.01,2013-03-18 11:18:00,
2013-03-18 07:23:00,29.7,21.8,29.17,SSE,158,0.0,0.0,72,0.00,,---,0.00,VWS V13.01,2013-03-18 11:23:00,
2013-03-18 07:28:00,29.7,21.8,29.17,SSE,158,0.0,0.0,72,0.00,,---,0.00,VWS V13.01,2013-03-18 11:28:00,
2013-03-18 07:33:00,29.7,21.4,29.17,SE,135,0.0,0.0,71,0.00,,---,0.00,VWS V13.01,2013-03-18 11:33:00,
2013-03-18 07:38:00,29.7,21.4,29.14,East,90,0.0,0.0,71,0.00,,---,0.00,VWS V13.01,2013-03-18 11:38:00,
2013-03-18 07:44:00,29.8,21.9,29.14,East,90,0.0,0.0,72,0.00,,---,0.00,VWS V13.01,2013-03-18 11:44:00,
2013-03-18 07:49:00,29.8,21.9,29.14,East,90,0.0,0.0,72,0.00,,---,0.00,VWS V13.01,2013-03-18 11:49:00,
2013-03-18 07:54:00,29.8,22.2,29.14,East,90,0.0,0.0,73,0.00,,---,0.00,VWS V13.01,2013-03-18 11:54:00,
2013-03-18 07:59:00,29.8,22.2,29.14,SW,225,0.0,0.0,73,0.00,,---,0.00,VWS V13.01,2013-03-18 11:59:00,
2013-03-18 08:04:00,29.8,22.2,29.14,SE,135,0.0,0.0,73,0.00,,---,0.00,VWS V13.01,2013-03-18 12:04:00,
2013-03-18 08:10:00,29.8,22.2,29.14,SE,135,0.0,0.0,73,0.00,,---,0.00,VWS V13.01,2013-03-18 12:10:00,
2013-03-18 08:15:00,29.8,21.9,29.14,SE,135,0.0,0.0,72,0.00,,---,0.00,VWS V13.01,2013-03-18 12:15:00,
2013-03-18 08:20:00,30.0,22.1,29.14,SE,135,0.0,0.0,72,0.00,,---,0.00,VWS V13.01,2013-03-18 12:20:00,
2013-03-18 08:25:00,29.8,21.6,29.14,SE,135,0.0,0.0,71,0.00,,---,0.00,VWS V13.01,2013-03-18 12:25:00,
2013-03-18 08:30:00,29.8,21.6,29.14,SE,135,0.0,0.0,71,0.00,,---,0.00,VWS V13.01,2013-03-18 12:30:00,
2013-03-18 08:35:00,29.8,20.9,29.14,SE,135,0.0,0.0,69,0.00,,---,0.00,VWS V13.01,2013-03-18 12:35:00,
2013-03-18 08:42:00,29.8,20.6,29.14,SE,135,0.0,0.0,68,0.00,,---,0.00,VWS V13.01,2013-03-18 12:42:00,
2013-03-18 08:47:00,29.8,19.9,29.14,South,180,0.0,0.0,66,0.00,,---,0.00,VWS V13.01,2013-03-18 12:47:00,
2013-03-18 08:52:00,29.8,19.9,29.14,South,180,0.0,0.0,66,0.00,,---,0.00,VWS V13.01,2013-03-18 12:52:00,
2013-03-18 08:58:00,29.8,18.8,29.14,South,180,0.0,0.0,63,0.00,,---,0.00,VWS V13.01,2013-03-18 12:58:00,
2013-03-18 09:03:00,29.8,18.8,29.14,South,180,0.0,0.0,63,0.00,,---,0.00,VWS V13.01,2013-03-18 13:03:00,
2013-03-18 09:09:00,29.8,18.4,29.12,South,180,0.0,0.0,62,0.00,,---,0.00,VWS V13.01,2013-03-18 13:09:00,
2013-03-18 09:14:00,29.8,18.4,29.12,South,180,0.0,0.0,62,0.00,,---,0.00,VWS V13.01,2013-03-18 13:14:00,
2013-03-18 09:19:00,29.8,18.0,29.12,South,180,0.0,0.0,61,0.00,,---,0.00,VWS V13.01,2013-03-18 13:19:00,
2013-03-18 09:24:00,29.8,17.7,29.12,South,180,0.0,0.0,60,0.00,,---,0.00,VWS V13.01,2013-03-18 13:24:00,
2013-03-18 09:30:00,29.8,17.3,29.12,South,180,0.0,0.0,59,0.00,,---,0.00,VWS V13.01,2013-03-18 13:30:00,
2013-03-18 09:35:00,29.8,17.3,29.12,East,90,0.0,0.0,59,0.00,,---,0.00,VWS V13.01,2013-03-18 13:35:00,
2013-03-18 09:40:00,29.8,17.3,29.12,SSE,158,0.0,0.0,59,0.00,,---,0.00,VWS V13.01,2013-03-18 13:40:00,
2013-03-18 09:45:00,29.8,16.9,29.12,SSE,158,0.0,0.0,58,0.00,,---,0.00,VWS V13.01,2013-03-18 13:45:00,
2013-03-18 09:50:00,29.8,16.9,29.12,SE,135,0.0,0.0,58,0.00,,---,0.00,VWS V13.01,2013-03-18 13:50:00,
2013-03-18 09:56:00,30.0,16.6,29.12,SE,135,0.0,0.0,57,0.00,,---,0.00,VWS V13.01,2013-03-18 13:56:00,
2013-03-18 10:02:00,30.0,16.6,29.12,SE,135,0.0,0.0,57,0.00,,---,0.00,VWS V13.01,2013-03-18 14:02:00,
2013-03-18 10:07:00,30.0,16.6,29.12,SE,135,0.0,0.0,57,0.00,,---,0.00,VWS V13.01,2013-03-18 14:07:00,
2013-03-18 10:12:00,30.2,16.4,29.12,South,180,0.0,0.0,56,0.00,,---,0.00,VWS V13.01,2013-03-18 14:12:00,
2013-03-18 10:18:00,30.2,16.4,29.12,NE,45,0.0,0.0,56,0.00,,---,0.00,VWS V13.01,2013-03-18 14:18:00,
2013-03-18 10:23:00,30.2,16.0,29.12,South,180,0.0,0.0,55,0.00,,---,0.00,VWS V13.01,2013-03-18 14:23:00,
2013-03-18 10:28:00,30.0,15.8,29.12,SE,135,0.0,0.0,55,0.00,,---,0.00,VWS V13.01,2013-03-18 14:28:00,
2013-03-18 10:33:00,30.0,15.8,29.12,East,90,0.0,0.0,55,0.00,,---,0.00,VWS V13.01,2013-03-18 14:33:00,
2013-03-18 10:38:00,30.0,15.8,29.09,ESE,112,0.0,0.0,55,0.00,,---,0.00,VWS V13.01,2013-03-18 14:38:00,
2013-03-18 10:44:00,30.0,15.8,29.09,South,180,0.0,0.0,55,0.00,,---,0.00,VWS V13.01,2013-03-18 14:44:00,
2013-03-18 10:49:00,30.0,15.8,29.09,ENE,68,0.0,0.0,55,0.00,,---,0.00,VWS V13.01,2013-03-18 14:49:00,
2013-03-18 10:54:00,29.8,16.1,29.09,South,180,0.0,0.0,56,0.00,,---,0.00,VWS V13.01,2013-03-18 14:54:00,
2013-03-18 11:00:00,29.8,16.5,29.09,SSW,202,0.0,0.0,57,0.00,,---,0.00,VWS V13.01,2013-03-18 15:00:00,
2013-03-18 11:05:00,29.8,16.5,29.09,SE,135,0.0,0.0,57,0.00,,---,0.00,VWS V13.01,2013-03-18 15:05:00,
2013-03-18 11:10:00,29.8,16.5,29.09,ENE,68,0.0,0.0,57,0.00,,---,0.00,VWS V13.01,2013-03-18 15:10:00,
2013-03-18 11:15:00,29.8,16.5,29.09,SE,135,0.0,0.0,57,0.00,,---,0.00,VWS V13.01,2013-03-18 15:15:00,
2013-03-18 11:21:00,30.0,16.6,29.09,SE,135,0.0,0.0,57,0.00,,---,0.00,VWS V13.01,2013-03-18 15:21:00,
2013-03-18 11:27:00,30.0,16.6,29.09,South,180,0.0,0.0,57,0.00,,---,0.00,VWS V13.01,2013-03-18 15:27:00,
2013-03-18 11:32:00,30.0,16.6,29.09,SE,135,0.0,0.0,57,0.00,,---,0.00,VWS V13.01,2013-03-18 15:32:00,
2013-03-18 11:38:00,29.8,16.1,29.09,East,90,0.0,0.0,56,0.00,,---,0.00,VWS V13.01,2013-03-18 15:38:00,
2013-03-18 11:43:00,29.8,16.1,29.09,SE,135,0.0,0.0,56,0.00,,---,0.00,VWS V13.01,2013-03-18 15:43:00,
2013-03-18 11:48:00,29.8,15.7,29.09,SE,135,0.0,0.0,55,0.00,,---,0.00,VWS V13.01,2013-03-18 15:48:00,
2013-03-18 11:54:00,29.8,15.7,29.09,SE,135,0.0,0.0,55,0.00,,---,0.00,VWS V13.01,2013-03-18 15:54:00,
2013-03-18 11:59:00,29.8,15.7,29.09,South,180,0.0,0.0,55,0.00,,---,0.00,VWS V13.01,2013-03-18 15:59:00,
2013-03-18 12:04:00,30.0,15.4,29.09,SSE,158,0.0,0.0,54,0.00,,---,0.00,VWS V13.01,2013-03-18 16:04:00,
2013-03-18 12:10:00,30.0,15.4,29.12,SE,135,0.0,0.0,54,0.00,,---,0.00,VWS V13.01,2013-03-18 16:10:00,
2013-03-18 12:15:00,30.2,15.6,29.12,SE,135,0.0,0.0,54,0.00,,---,0.00,VWS V13.01,2013-03-18 16:15:00,
2013-03-18 12:20:00,30.2,15.6,29.12,SE,135,0.0,0.0,54,0.00,,---,0.00,VWS V13.01,2013-03-18 16:20:00,
2013-03-18 12:25:00,30.2,15.6,29.09,SSE,158,0.0,0.0,54,0.00,,---,0.00,VWS V13.01,2013-03-18 16:25:00,
2013-03-18 12:30:00,30.2,15.6,29.09,ESE,112,0.0,0.0,54,0.00,,---,0.00,VWS V13.01,2013-03-18 16:30:00,
2013-03-18 12:35:00,30.2,16.0,29.09,ESE,112,0.0,0.0,55,0.00,,---,0.00,VWS V13.01,2013-03-18 16:35:00,
2013-03-18 12:40:00,30.2,16.4,29.09,East,90,0.0,0.0,56,0.00,,---,0.00,VWS V13.01,2013-03-18 16:40:00,
2013-03-18 12:47:00,30.2,16.4,29.09,ENE,68,0.0,0.0,56,0.00,,---,0.00,VWS V13.01,2013-03-18 16:47:00,
2013-03-18 12:52:00,30.4,17.0,29.09,ENE,68,0.0,0.0,57,0.00,,---,0.00,VWS V13.01,2013-03-18 16:52:00,
2013-03-18 12:57:00,30.4,17.4,29.09,WSW,248,0.0,0.0,58,0.00,,---,0.00,VWS V13.01,2013-03-18 16:57:00,
2013-03-18 13:02:00,30.4,17.4,29.09,SE,135,0.0,0.0,58,0.00,,---,0.00,VWS V13.01,2013-03-18 17:02:00,
2013-03-18 13:07:00,30.2,17.6,29.09,ESE,112,0.0,0.0,59,0.00,,---,0.00,VWS V13.01,2013-03-18 17:07:00,
2013-03-18 13:13:00,30.2,18.0,29.09,SE,135,0.0,0.0,60,0.00,,---,0.00,VWS V13.01,2013-03-18 17:13:00,
2013-03-18 13:18:00,30.2,18.0,29.09,South,180,0.0,0.0,60,0.00,,---,0.00,VWS V13.01,2013-03-18 17:18:00,
2013-03-18 13:23:00,30.2,18.0,29.06,South,180,0.0,0.0,60,0.00,,---,0.00,VWS V13.01,2013-03-18 17:23:00,
2013-03-18 13:29:00,30.4,18.6,29.06,South,180,0.0,0.0,61,0.00,,---,0.00,VWS V13.01,2013-03-18 17:29:00,
2013-03-18 13:34:00,30.4,19.3,29.06,SE,135,0.0,0.0,63,0.00,,---,0.00,VWS V13.01,2013-03-18 17:34:00,
2013-03-18 13:40:00,30.6,19.9,29.06,SE,135,0.0,0.0,64,0.00,,---,0.00,VWS V13.01,2013-03-18 17:40:00,
2013-03-18 13:45:00,30.6,20.2,29.06,SE,135,0.0,0.0,65,0.00,,---,0.00,VWS V13.01,2013-03-18 17:45:00,
2013-03-18 13:50:00,30.6,20.6,29.06,South,180,0.0,0.0,66,0.00,,---,0.00,VWS V13.01,2013-03-18 17:50:00,
2013-03-18 13:55:00,30.6,20.9,29.03,SE,135,0.0,0.0,67,0.00,,---,0.00,VWS V13.01,2013-03-18 17:55:00,
2013-03-18 14:00:00,30.9,22.0,29.03,SE,135,0.0,0.0,69,0.00,,---,0.00,VWS V13.01,2013-03-18 18:00:00,
2013-03-18 14:06:00,31.1,22.8,29.03,South,180,0.0,0.0,71,0.00,,---,0.00,VWS V13.01,2013-03-18 18:06:00,
2013-03-18 14:12:00,31.1,23.1,29.03,South,180,0.0,0.0,72,0.00,,---,0.00,VWS V13.01,2013-03-18 18:12:00,
2013-03-18 14:18:00,31.3,23.3,29.03,SE,135,3.1,4.9,72,0.00,,---,0.00,VWS V13.01,2013-03-18 18:18:00,
2013-03-18 14:23:00,31.3,23.6,29.03,SE,135,2.7,2.7,73,0.00,,---,0.00,VWS V13.01,2013-03-18 18:23:00,
2013-03-18 14:28:00,31.3,23.6,29.03,SE,135,2.7,4.0,73,0.00,,---,0.00,VWS V13.01,2013-03-18 18:28:00,
2013-03-18 14:34:00,31.5,23.8,29.03,South,180,2.7,5.4,73,0.00,,---,0.00,VWS V13.01,2013-03-18 18:34:00,
2013-03-18 14:39:00,31.5,24.1,29.00,South,180,2.7,5.4,74,0.00,,---,0.00,VWS V13.01,2013-03-18 18:39:00,
2013-03-18 14:44:00,31.5,24.1,29.00,South,180,2.7,3.6,74,0.00,,---,0.00,VWS V13.01,2013-03-18 18:44:00,
2013-03-18 14:49:00,31.5,24.1,29.00,South,180,0.0,4.9,74,0.00,,---,0.00,VWS V13.01,2013-03-18 18:49:00,
2013-03-18 14:54:00,31.6,24.3,29.00,South,180,2.7,4.9,74,0.00,,---,0.00,VWS V13.01,2013-03-18 18:54:00,
2013-03-18 15:00:00,31.8,24.5,29.00,South,180,0.0,4.9,74,0.00,,---,0.00,VWS V13.01,2013-03-18 19:00:00,
2013-03-18 15:05:00,31.8,24.5,29.00,South,180,0.0,2.7,74,0.00,,---,0.00,VWS V13.01,2013-03-18 19:05:00,
2013-03-18 15:10:00,31.8,24.8,29.00,South,180,0.0,2.7,75,0.00,,---,0.00,VWS V13.01,2013-03-18 19:10:00,
2013-03-18 15:15:00,32.0,25.0,29.00,South,180,0.0,2.7,75,0.00,,---,0.00,VWS V13.01,2013-03-18 19:15:00,
2013-03-18 15:21:00,32.2,25.2,29.00,South,180,0.0,2.7,75,0.00,,---,0.00,VWS V13.01,2013-03-18 19:21:00,
2013-03-18 15:26:00,32.2,25.5,29.00,South,180,0.0,0.0,76,0.00,,---,0.00,VWS V13.01,2013-03-18 19:26:00,
2013-03-18 15:31:00,32.2,25.5,29.00,South,180,0.0,0.0,76,0.00,,---,0.00,VWS V13.01,2013-03-18 19:31:00,
2013-03-18 15:36:00,32.2,26.1,29.00,South,180,0.0,0.0,78,0.00,,---,0.00,VWS V13.01,2013-03-18 19:36:00,
2013-03-18 15:42:00,32.2,26.1,29.00,South,180,0.0,0.0,78,0.00,,---,0.00,VWS V13.01,2013-03-18 19:42:00,
2013-03-18 15:47:00,32.2,26.1,29.00,South,180,0.0,0.0,78,0.00,,---,0.00,VWS V13.01,2013-03-18 19:47:00,
2013-03-18 15:52:00,32.4,26.6,29.00,SSE,158,0.0,0.0,79,0.00,,---,0.00,VWS V13.01,2013-03-18 19:52:00,
2013-03-18 15:58:00,32.5,26.8,29.00,SSE,158,0.0,0.0,79,0.00,,---,0.00,VWS V13.01,2013-03-18 19:58:00,
2013-03-18 16:03:00,32.5,26.8,29.00,SSE,158,0.0,0.0,79,0.00,,---,0.00,VWS V13.01,2013-03-18 20:03:00,
2013-03-18 16:08:00,32.5,26.8,29.00,SSE,158,0.0,3.1,79,0.00,,---,0.00,VWS V13.01,2013-03-18 20:08:00,
2013-03-18 16:14:00,32.5,26.8,29.00,SSE,158,0.0,3.1,79,0.00,,---,0.00,VWS V13.01,2013-03-18 20:14:00,
2013-03-18 16:19:00,32.7,26.9,29.00,SSE,158,0.0,3.1,79,0.00,,---,0.00,VWS V13.01,2013-03-18 20:19:00,
2013-03-18 16:24:00,32.7,26.9,29.00,SE,135,0.0,4.0,79,0.00,,---,0.00,VWS V13.01,2013-03-18 20:24:00,
2013-03-18 16:29:00,32.7,26.9,29.00,SE,135,0.0,4.0,79,0.00,,---,0.00,VWS V13.01,2013-03-18 20:29:00,
2013-03-18 16:34:00,32.7,26.9,29.00,SE,135,0.0,4.0,79,0.00,,---,0.00,VWS V13.01,2013-03-18 20:34:00,
2013-03-18 16:40:00,32.7,26.9,28.97,SE,135,4.9,4.9,79,0.00,,---,0.00,VWS V13.01,2013-03-18 20:40:00,
2013-03-18 16:45:00,32.7,26.6,28.97,SE,135,0.0,3.1,78,0.00,,---,0.00,VWS V13.01,2013-03-18 20:45:00,
2013-03-18 16:50:00,32.7,26.6,28.97,South,180,0.0,3.6,78,0.00,,---,0.00,VWS V13.01,2013-03-18 20:50:00,
2013-03-18 16:55:00,32.7,26.6,28.97,SE,135,0.0,3.6,78,0.00,,---,0.00,VWS V13.01,2013-03-18 20:55:00,
2013-03-18 17:00:00,32.7,26.6,28.97,SE,135,0.0,3.6,78,0.00,,---,0.00,VWS V13.01,2013-03-18 21:00:00,
2013-03-18 17:06:00,32.9,26.8,28.97,SE,135,0.0,0.0,78,0.00,,---,0.00,VWS V13.01,2013-03-18 21:06:00,
2013-03-18 17:12:00,33.1,27.0,28.97,SE,135,0.0,0.0,78,0.00,,---,0.00,VWS V13.01,2013-03-18 21:12:00,
2013-03-18 17:17:00,33.1,26.7,28.97,SE,135,2.2,4.0,77,0.00,,---,0.00,VWS V13.01,2013-03-18 21:17:00,
2013-03-18 17:22:00,33.1,26.7,28.97,SE,135,0.0,4.0,77,0.00,,---,0.00,VWS V13.01,2013-03-18 21:22:00,
2013-03-18 17:27:00,33.1,26.7,28.97,SE,135,3.6,3.6,77,0.00,,---,0.00,VWS V13.01,2013-03-18 21:27:00,
2013-03-18 17:32:00,33.1,26.0,28.97,SE,135,0.0,3.6,75,0.00,,---,0.00,VWS V13.01,2013-03-18 21:32:00,
2013-03-18 17:37:00,33.1,25.7,28.97,SE,135,0.0,4.0,74,0.00,,---,0.00,VWS V13.01,2013-03-18 21:37:00,
2013-03-18 17:43:00,33.1,25.7,28.94,SE,135,4.0,4.0,74,0.00,,---,0.00,VWS V13.01,2013-03-18 21:43:00,
2013-03-18 17:48:00,33.1,25.0,28.94,SE,135,0.0,4.0,72,0.00,,---,0.00,VWS V13.01,2013-03-18 21:48:00,
2013-03-18 17:54:00,33.1,24.7,28.94,South,180,0.0,4.0,71,0.00,,---,0.00,VWS V13.01,2013-03-18 21:54:00,
2013-03-18 17:59:00,33.1,24.0,28.94,SW,225,0.0,4.0,69,0.00,,---,0.00,VWS V13.01,2013-03-18 21:59:00,
2013-03-18 18:04:00,33.1,23.3,28.94,SW,225,0.0,0.0,67,0.00,,---,0.00,VWS V13.01,2013-03-18 22:04:00,
2013-03-18 18:09:00,33.1,22.6,28.94,NNE,22,0.0,0.0,65,0.00,,---,0.00,VWS V13.01,2013-03-18 22:09:00,
2013-03-18 18:14:00,33.1,22.6,28.94,NW,315,0.0,0.0,65,0.00,,---,0.00,VWS V13.01,2013-03-18 22:14:00,
2013-03-18 18:19:00,33.1,22.2,28.94,South,180,0.0,0.0,64,0.00,,---,0.00,VWS V13.01,2013-03-18 22:19:00,
2013-03-18 18:24:00,33.1,21.9,28.91,South,180,0.0,0.0,63,0.00,,---,0.00,VWS V13.01,2013-03-18 22:24:00,
2013-03-18 18:30:00,33.1,21.9,28.91,South,180,0.0,0.0,63,0.00,,---,0.00,VWS V13.01,2013-03-18 22:30:00,
2013-03-18 18:35:00,33.1,21.9,28.91,South,180,0.0,0.0,63,0.00,,---,0.00,VWS V13.01,2013-03-18 22:35:00,
2013-03-18 18:40:00,33.1,21.5,28.91,South,180,0.0,0.0,62,0.00,,---,0.00,VWS V13.01,2013-03-18 22:40:00,
2013-03-18 18:45:00,33.3,21.3,28.91,SSE,158,0.0,0.0,61,0.00,,---,0.00,VWS V13.01,2013-03-18 22:45:00,
2013-03-18 18:50:00,33.3,20.9,28.91,East,90,0.0,0.0,60,0.00,,---,0.00,VWS V13.01,2013-03-18 22:50:00,
2013-03-18 18:56:00,33.3,20.9,28.91,SE,135,0.0,0.0,60,0.00,,---,0.00,VWS V13.01,2013-03-18 22:56:00,
2013-03-18 19:01:00,33.3,20.9,28.91,SE,135,0.0,0.0,60,0.00,,---,0.00,VWS V13.01,2013-03-18 23:01:00,
2013-03-18 19:06:00,33.3,20.5,28.91,SE,135,0.0,0.0,59,0.00,,---,0.00,VWS V13.01,2013-03-18 23:06:00,
2013-03-18 19:12:00,33.3,20.9,28.91,SE,135,0.0,0.0,60,0.00,,---,0.00,VWS V13.01,2013-03-18 23:12:00,
2013-03-18 19:17:00,33.3,20.9,28.91,SE,135,0.0,0.0,60,0.00,,---,0.00,VWS V13.01,2013-03-18 23:17:00,
2013-03-18 19:22:00,33.3,20.9,28.91,East,90,0.0,0.0,60,0.00,,---,0.00,VWS V13.01,2013-03-18 23:22:00,
2013-03-18 19:28:00,33.3,21.3,28.91,East,90,0.0,0.0,61,0.00,,---,0.00,VWS V13.01,2013-03-18 23:28:00,
2013-03-18 19:33:00,33.3,21.3,28.91,SW,225,0.0,0.0,61,0.00,,---,0.00,VWS V13.01,2013-03-18 23:33:00,
2013-03-18 19:38:00,33.4,21.1,28.91,South,180,0.0,0.0,60,0.00,,---,0.00,VWS V13.01,2013-03-18 23:38:00,
2013-03-18 19:43:00,33.4,20.7,28.91,ENE,68,0.0,0.0,59,0.00,,---,0.00,VWS V13.01,2013-03-18 23:43:00,
2013-03-18 19:48:00,33.4,20.7,28.91,ENE,68,0.0,0.0,59,0.00,,---,0.00,VWS V13.01,2013-03-18 23:48:00,
2013-03-18 19:54:00,33.4,20.7,28.91,ENE,68,0.0,0.0,59,0.00,,---,0.00,VWS V13.01,2013-03-18 23:54:00,
2013-03-18 19:59:00,33.4,21.1,28.91,ENE,68,0.0,0.0,60,0.00,,---,0.00,VWS V13.01,2013-03-18 23:59:00,
2013-03-18 20:04:00,33.4,21.1,28.91,ENE,68,0.0,0.0,60,0.00,,---,0.00,VWS V13.01,2013-03-19 00:04:00,
2013-03-18 20:09:00,33.4,21.1,28.91,ENE,68,0.0,0.0,60,0.00,,---,0.00,VWS V13.01,2013-03-19 00:09:00,
2013-03-18 20:14:00,33.4,21.1,28.91,ENE,68,0.0,0.0,60,0.00,,---,0.00,VWS V13.01,2013-03-19 00:14:00,
2013-03-18 20:19:00,33.4,21.5,28.91,ENE,68,0.0,0.0,61,0.00,,---,0.00,VWS V13.01,2013-03-19 00:19:00,
2013-03-18 20:24:00,33.4,21.5,28.91,ENE,68,0.0,0.0,61,0.00,,---,0.00,VWS V13.01,2013-03-19 00:24:00,
2013-03-18 20:29:00,33.6,22.0,28.91,ENE,68,0.0,0.0,62,0.00,,---,0.00,VWS V13.01,2013-03-19 00:29:00,
2013-03-18 20:35:00,33.6,22.0,28.91,ENE,68,0.0,0.0,62,0.00,,---,0.00,VWS V13.01,2013-03-19 00:35:00,
2013-03-18 20:40:00,33.6,21.6,28.91,South,180,0.0,0.0,61,0.00,,---,0.00,VWS V13.01,2013-03-19 00:40:00,
2013-03-18 20:45:00,33.6,22.0,28.91,South,180,0.0,0.0,62,0.00,,---,0.00,VWS V13.01,2013-03-19 00:45:00,
2013-03-18 20:50:00,33.4,21.8,28.91,South,180,0.0,0.0,62,0.00,,---,0.00,VWS V13.01,2013-03-19 00:50:00,
2013-03-18 20:55:00,33.4,21.8,28.91,South,180,0.0,0.0,62,0.00,,---,0.00,VWS V13.01,2013-03-19 00:55:00,
2013-03-18 21:00:00,33.3,22.0,28.91,South,180,0.0,0.0,63,0.00,,---,0.00,VWS V13.01,2013-03-19 01:00:00,
2013-03-18 21:05:00,33.6,22.8,28.91,South,180,0.0,0.0,64,0.00,,---,0.00,VWS V13.01,2013-03-19 01:05:00,
2013-03-18 21:11:00,33.6,22.8,28.91,South,180,0.0,0.0,64,0.00,,---,0.00,VWS V13.01,2013-03-19 01:11:00,
2013-03-18 21:16:00,33.6,22.8,28.91,South,180,0.0,0.0,64,0.00,,---,0.00,VWS V13.01,2013-03-19 01:16:00,
2013-03-18 21:22:00,33.4,23.0,28.88,South,180,0.0,0.0,65,0.00,,---,0.00,VWS V13.01,2013-03-19 01:22:00,
2013-03-18 21:28:00,33.4,23.0,28.88,South,180,0.0,0.0,65,0.00,,---,0.00,VWS V13.01,2013-03-19 01:28:00,
2013-03-18 21:33:00,33.3,23.1,28.88,South,180,0.0,0.0,66,0.00,,---,0.00,VWS V13.01,2013-03-19 01:33:00,
2013-03-18 21:38:00,33.3,23.1,28.88,South,180,0.0,0.0,66,0.00,,---,0.00,VWS V13.01,2013-03-19 01:38:00,
2013-03-18 21:43:00,33.3,23.5,28.88,South,180,0.0,0.0,67,0.00,,---,0.00,VWS V13.01,2013-03-19 01:43:00,
2013-03-18 21:48:00,33.3,23.9,28.88,ENE,68,0.0,0.0,68,0.00,,---,0.00,VWS V13.01,2013-03-19 01:48:00,
2013-03-18 21:54:00,33.3,24.2,28.88,ENE,68,0.0,0.0,69,0.00,,---,0.00,VWS V13.01,2013-03-19 01:54:00,
2013-03-18 21:59:00,33.3,24.5,28.88,ENE,68,0.0,0.0,70,0.00,,---,0.00,VWS V13.01,2013-03-19 01:59:00,
2013-03-18 22:04:00,33.4,25.1,28.88,ENE,68,0.0,0.0,71,0.00,,---,0.00,VWS V13.01,2013-03-19 02:04:00,
2013-03-18 22:10:00,33.4,25.4,28.88,ENE,68,0.0,0.0,72,0.00,,---,0.00,VWS V13.01,2013-03-19 02:10:00,
2013-03-18 22:15:00,33.6,25.9,28.88,ENE,68,0.0,0.0,73,0.00,,---,0.00,VWS V13.01,2013-03-19 02:15:00,
2013-03-18 22:20:00,33.6,26.2,28.88,ENE,68,0.0,0.0,74,0.00,,---,0.00,VWS V13.01,2013-03-19 02:20:00,
2013-03-18 22:25:00,33.6,26.6,28.85,NE,45,0.0,0.0,75,0.00,,---,0.00,VWS V13.01,2013-03-19 02:25:00,
2013-03-18 22:32:00,33.6,26.6,28.85,NE,45,0.0,0.0,75,0.00,,---,0.00,VWS V13.01,2013-03-19 02:32:00,
2013-03-18 22:37:00,33.6,26.9,28.85,NE,45,0.0,0.0,76,0.00,,---,0.00,VWS V13.01,2013-03-19 02:37:00,
2013-03-18 22:42:00,33.6,26.9,28.85,NE,45,0.0,0.0,76,0.00,,---,0.00,VWS V13.01,2013-03-19 02:42:00,
2013-03-18 22:48:00,33.6,26.9,28.85,NE,45,0.0,0.0,76,0.00,,---,0.00,VWS V13.01,2013-03-19 02:48:00,
2013-03-18 22:53:00,33.6,26.9,28.85,SW,225,0.0,0.0,76,0.00,,---,0.00,VWS V13.01,2013-03-19 02:53:00,
2013-03-18 22:58:00,33.8,27.0,28.85,SW,225,0.0,0.0,76,0.00,,---,0.00,VWS V13.01,2013-03-19 02:58:00,
2013-03-18 23:03:00,33.8,27.0,28.85,SW,225,0.0,0.0,76,0.00,,---,0.00,VWS V13.01,2013-03-19 03:03:00,
2013-03-18 23:08:00,33.8,27.4,28.85,SW,225,0.0,0.0,77,0.00,,---,0.00,VWS V13.01,2013-03-19 03:08:00,
2013-03-18 23:13:00,33.8,27.4,28.85,SW,225,0.0,0.0,77,0.00,,---,0.00,VWS V13.01,2013-03-19 03:13:00,
2013-03-18 23:19:00,33.8,27.4,28.85,SW,225,0.0,0.0,77,0.00,,---,0.00,VWS V13.01,2013-03-19 03:19:00,
2013-03-18 23:24:00,33.8,27.4,28.85,SW,225,0.0,0.0,77,0.00,,---,0.00,VWS V13.01,2013-03-19 03:24:00,
2013-03-18 23:29:00,33.8,27.4,28.85,SW,225,0.0,0.0,77,0.00,,---,0.00,VWS V13.01,2013-03-19 03:29:00,
2013-03-18 23:34:00,34.0,27.9,28.85,SW,225,0.0,0.0,78,0.00,,---,0.00,VWS V13.01,2013-03-19 03:34:00,
2013-03-18 23:39:00,34.0,27.9,28.85,SW,225,0.0,0.0,78,0.00,,---,0.00,VWS V13.01,2013-03-19 03:39:00,
2013-03-18 23:44:00,34.0,27.9,28.85,SW,225,0.0,0.0,78,0.00,,---,0.00,VWS V13.01,2013-03-19 03:44:00,
2013-03-18 23:50:00,34.0,27.9,28.85,SW,225,0.0,0.0,78,0.00,,---,0.00,VWS V13.01,2013-03-19 03:50:00,
2013-03-18 23:55:00,34.0,27.9,28.85,SW,225,0.0,0.0,78,0.00,,---,0.00,VWS V13.01,2013-03-19 03:55:00,